Terminal Aerodrome Forecast
Issued by NWS Brownsville, TX

Home | Current Version | Previous Version | Text Only | Print | Product List | Glossary On
Versions: 1 2 3 4 5 6 7 8 9 10 11 12 13 14 15
000
FTUS44 KBRO 162330
TAFHRL
TAF
KHRL 162330Z 1700/1724 17014KT P6SM FEW035 BKN250
     FM170600 14008KT P6SM BKN020
      TEMPO 1711/1714 4SM BR BKN010
     FM171700 16015G22KT P6SM SCT025 BKN035=

USA.gov is the U.S. government's official web portal to all federal, state and local government web resources and services.